Map

Track Data

SID SEASON NUMBER BASIN SUBBASIN NAME ISO_TIME NATURE LAT LON WMO_WIND WMO_PRES WMO_AGENCY TRACK_TYPE DIST2LAND LANDFALL IFLAG USA_AGENCY USA_ATCF_ID USA_LAT USA_LON USA_RECORD USA_STATUS USA_WIND USA_PRES USA_SSHS USA_R34_NE USA_R34_SE USA_R34_SW USA_R34_NW USA_R50_NE USA_R50_SE USA_R50_SW USA_R50_NW USA_R64_NE USA_R64_SE USA_R64_SW USA_R64_NW USA_POCI USA_ROCI USA_RMW USA_EYE TOKYO_LAT TOKYO_LON TOKYO_GRADE TOKYO_WIND TOKYO_PRES TOKYO_R50_DIR TOKYO_R50_LONG TOKYO_R50_SHORT TOKYO_R30_DIR TOKYO_R30_LONG TOKYO_R30_SHORT TOKYO_LAND CMA_LAT CMA_LON CMA_CAT CMA_WIND CMA_PRES HKO_LAT HKO_LON HKO_CAT HKO_WIND HKO_PRES NEWDELHI_LAT NEWDELHI_LON NEWDELHI_GRADE NEWDELHI_WIND NEWDELHI_PRES NEWDELHI_CI NEWDELHI_DP NEWDELHI_POCI REUNION_LAT REUNION_LON REUNION_TYPE REUNION_WIND REUNION_PRES REUNION_TNUM REUNION_CI REUNION_RMW REUNION_R34_NE REUNION_R34_SE REUNION_R34_SW REUNION_R34_NW REUNION_R50_NE REUNION_R50_SE REUNION_R50_SW REUNION_R50_NW REUNION_R64_NE REUNION_R64_SE REUNION_R64_SW REUNION_R64_NW BOM_LAT BOM_LON BOM_TYPE BOM_WIND BOM_PRES BOM_TNUM BOM_CI BOM_RMW BOM_R34_NE BOM_R34_SE BOM_R34_SW BOM_R34_NW BOM_R50_NE BOM_R50_SE BOM_R50_SW BOM_R50_NW BOM_R64_NE BOM_R64_SE BOM_R64_SW BOM_R64_NW BOM_ROCI BOM_POCI BOM_EYE BOM_POS_METHOD BOM_PRES_METHOD NADI_LAT NADI_LON NADI_CAT NADI_WIND NADI_PRES WELLINGTON_LAT WELLINGTON_LON WELLINGTON_WIND WELLINGTON_PRES DS824_LAT DS824_LON DS824_STAGE DS824_WIND DS824_PRES TD9636_LAT TD9636_LON TD9636_STAGE TD9636_WIND TD9636_PRES TD9635_LAT TD9635_LON TD9635_WIND TD9635_PRES TD9635_ROCI NEUMANN_LAT NEUMANN_LON NEUMANN_CLASS NEUMANN_WIND NEUMANN_PRES MLC_LAT MLC_LON MLC_CLASS MLC_WIND MLC_PRES USA_GUST BOM_GUST BOM_GUST_PER REUNION_GUST REUNION_GUST_PER USA_SEAHGT USA_SEARAD_NE USA_SEARAD_SE USA_SEARAD_SW USA_SEARAD_NW STORM_SPEED STORM_DIR
1938001S14044 1938 1 SI MM NOT_NAMED 1938-01-01 06:00:00 NR -13.8000 44.3000 reunion main 260 260 _____O________ -1 -13.8000 44.3000 99 9.90000 0 0
1938001S14044 1938 1 SI MM NOT_NAMED 1938-01-01 09:00:00 NR -13.7995 44.2867 main 260 260 _____P________ -1 -13.7995 44.2867 99 0 261
1938001S14044 1938 1 SI MM NOT_NAMED 1938-01-01 12:00:00 NR -13.8062 44.2710 main 260 260 _____P________ -1 -13.8062 44.2710 99 0 225
1938001S14044 1938 1 SI MM NOT_NAMED 1938-01-01 15:00:00 NR -13.8272 44.2508 main 260 254 _____P________ -1 -13.8272 44.2508 99 1 216
1938001S14044 1938 1 SI MM NOT_NAMED 1938-01-01 18:00:00 NR -13.8699 44.2237 main 254 254 _____P________ -1 -13.8699 44.2237 99 1 204
1938001S14044 1938 1 SI MM NOT_NAMED 1938-01-01 21:00:00 NR -13.9413 44.1874 main 254 243 _____P________ -1 -13.9413 44.1874 99 2 203
1938001S14044 1938 1 SI MM NOT_NAMED 1938-01-02 00:00:00 NR -14.0486 44.1396 main 248 228 _____P________ -1 -14.0486 44.1396 99 3 201
1938001S14044 1938 1 SI MM NOT_NAMED 1938-01-02 03:00:00 NR -14.1991 44.0779 main 228 214 _____P________ -1 -14.1991 44.0779 99 4 201
1938001S14044 1938 1 SI MM NOT_NAMED 1938-01-02 06:00:00 NR -14.4000 44.0000 reunion main 214 197 _____O________ -1 -14.4000 44.0000 99 9.90000 5 200
1938001S14044 1938 1 SI MM NOT_NAMED 1938-01-02 09:00:00 NR -14.6553 43.9046 main 186 169 _____P________ -1 -14.6553 43.9046 99 6 200
1938001S14044 1938 1 SI MM NOT_NAMED 1938-01-02 12:00:00 NR -14.9568 43.7951 main 159 134 _____P________ -1 -14.9568 43.7951 99 7 199
1938001S14044 1938 1 SI MM NOT_NAMED 1938-01-02 15:00:00 NR -15.2931 43.6760 main 134 116 _____P________ -1 -15.2931 43.6760 99 7 199
1938001S14044 1938 1 SI MM NOT_NAMED 1938-01-02 18:00:00 NR -15.6530 43.5519 main 108 106 _____P________ -1 -15.6530 43.5519 99 8 198
1938001S14044 1938 1 SI MM NOT_NAMED 1938-01-02 21:00:00 NR -16.0249 43.4276 main 111 106 _____P________ -1 -16.0249 43.4276 99 8 197
1938001S14044 1938 1 SI MM NOT_NAMED 1938-01-03 00:00:00 NR -16.3976 43.3076 main 117 108 _____P________ -1 -16.3976 43.3076 99 8 197
1938001S14044 1938 1 SI MM NOT_NAMED 1938-01-03 03:00:00 NR -16.7597 43.1968 main 105 96 _____P________ -1 -16.7597 43.1968 99 7 196
1938001S14044 1938 1 SI MM NOT_NAMED 1938-01-03 06:00:00 NR -17.1000 43.1000 reunion main 96 87 _____O________ -1 -17.1000 43.1000 99 9.90000 6 194
1938001S14044 1938 1 SI MM NOT_NAMED 1938-01-03 09:00:00 NR -17.3726 43.0322 main 96 95 _____P________ -1 -17.3726 43.0322 99 5 193
1938001S14044 1938 1 SI MM NOT_NAMED 1938-01-03 12:00:00 NR -17.6282 42.9770 main 96 96 _____P________ -1 -17.6282 42.9770 99 5 191
1938001S14044 1938 1 SI MM NOT_NAMED 1938-01-03 15:00:00 NR -17.8702 42.9324 main 115 115 _____P________ -1 -17.8702 42.9324 99 5 190
1938001S14044 1938 1 SI MM NOT_NAMED 1938-01-03 18:00:00 NR -18.1022 42.8965 main 116 116 _____P________ -1 -18.1022 42.8965 99 5 187
1938001S14044 1938 1 SI MM NOT_NAMED 1938-01-03 21:00:00 NR -18.3277 42.8673 main 116 116 _____P________ -1 -18.3277 42.8673 99 5 187
1938001S14044 1938 1 SI MM NOT_NAMED 1938-01-04 00:00:00 NR -18.5501 42.8428 main 128 128 _____P________ -1 -18.5501 42.8428 99 5 186
1938001S14044 1938 1 SI MM NOT_NAMED 1938-01-04 03:00:00 NR -18.7731 42.8210 main 134 134 _____P________ -1 -18.7731 42.8210 99 5 184
1938001S14044 1938 1 SI MM NOT_NAMED 1938-01-04 06:00:00 NR -19.0000 42.8000 reunion main 143 143 _____O________ -1 -19.0000 42.8000 99 9.90000 5 186
1938001S14044 1938 1 SI MM NOT_NAMED 1938-01-04 09:00:00 NR -19.2664 42.7665 main 148 148 _____P________ -1 -19.2664 42.7665 99 5 187
1938001S14044 1938 1 SI MM NOT_NAMED 1938-01-04 12:00:00 NR -19.5374 42.7347 main 163 163 _____P________ -1 -19.5374 42.7347 99 5 186
1938001S14044 1938 1 SI MM NOT_NAMED 1938-01-04 15:00:00 NR -19.8085 42.7050 main 165 147 _____P________ -1 -19.8085 42.7050 99 5 187
1938001S14044 1938 1 SI MM NOT_NAMED 1938-01-04 18:00:00 NR -20.0749 42.6776 main 147 136 _____P________ -1 -20.0749 42.6776 99 5 186
1938001S14044 1938 1 SI MM NOT_NAMED 1938-01-04 21:00:00 NR -20.3320 42.6530 main 136 129 _____P________ -1 -20.3320 42.6530 99 5 185
1938001S14044 1938 1 SI MM NOT_NAMED 1938-01-05 00:00:00 NR -20.5750 42.6317 main 129 114 _____P________ -1 -20.5750 42.6317 99 5 184
1938001S14044 1938 1 SI MM NOT_NAMED 1938-01-05 03:00:00 NR -20.7992 42.6138 main 114 103 _____P________ -1 -20.7992 42.6138 99 4 184
1938001S14044 1938 1 SI MM NOT_NAMED 1938-01-05 06:00:00 NR -21.0000 42.6000 reunion main 103 95 _____O________ -1 -21.0000 42.6000 99 9.90000 4 183
1938001S14044 1938 1 SI MM NOT_NAMED 1938-01-05 09:00:00 NR -21.1740 42.5904 main 95 93 _____P________ -1 -21.1740 42.5904 99 3 183
1938001S14044 1938 1 SI MM NOT_NAMED 1938-01-05 12:00:00 NR -21.3234 42.5846 main 93 93 _____P________ -1 -21.3234 42.5846 99 3 0
1938001S14044 1938 1 SI MM NOT_NAMED 1938-01-05 15:00:00 NR -21.4517 42.5821 main 89 84 _____P________ -1 -21.4517 42.5821 99 2 187
1938001S14044 1938 1 SI MM NOT_NAMED 1938-01-05 18:00:00 NR -21.5625 42.5823 main 84 79 _____P________ -1 -21.5625 42.5823 99 2 0
1938001S14044 1938 1 SI MM NOT_NAMED 1938-01-05 21:00:00 NR -21.6592 42.5848 main 79 79 _____P________ -1 -21.6592 42.5848 99 2 0
1938001S14044 1938 1 SI MM NOT_NAMED 1938-01-06 00:00:00 NR -21.7453 42.5890 main 79 75 _____P________ -1 -21.7453 42.5890 99 2 0
1938001S14044 1938 1 SI MM NOT_NAMED 1938-01-06 03:00:00 NR -21.8244 42.5942 main 75 70 _____P________ -1 -21.8244 42.5942 99 2 0
1938001S14044 1938 1 SI MM NOT_NAMED 1938-01-06 06:00:00 NR -21.9000 42.6000 reunion main 70 _____O________ -1 -21.9000 42.6000 99 9.90000 2 163

About IBTrACS Database

This database is a web-friendly format of International Best Track Archive for Climate Stewardship (IBTrACS), a global best track data archive curated by NOAA dating back to 1842.

Updated: 2021-10-21